createdAt,value
2019-02-12T00:00:56.347Z,1020.92
2019-02-12T00:01:56.354Z,1020.96
2019-02-12T00:02:56.323Z,1020.99
2019-02-12T00:03:56.323Z,1020.97
2019-02-12T00:04:56.300Z,1021.02
2019-02-12T00:05:56.304Z,1020.93
2019-02-12T00:06:56.315Z,1021.01
2019-02-12T00:07:56.271Z,1020.93
2019-02-12T00:08:56.274Z,1021.02
2019-02-12T00:09:56.244Z,1021.01
2019-02-12T00:10:56.245Z,1020.94
2019-02-12T00:11:56.223Z,1020.99
2019-02-12T00:12:56.250Z,1020.97
2019-02-12T00:13:56.202Z,1020.96
2019-02-12T00:14:56.212Z,1020.95
2019-02-12T00:15:56.188Z,1020.96
2019-02-12T00:16:56.177Z,1021.01
2019-02-12T00:17:56.166Z,1020.98
2019-02-12T00:18:56.168Z,1020.93
2019-02-12T00:19:56.140Z,1020.98
2019-02-12T00:20:56.144Z,1021.09
2019-02-12T00:21:56.162Z,1021.07
2019-02-12T00:22:56.124Z,1021.11
2019-02-12T00:23:56.133Z,1021.21
2019-02-12T00:24:56.090Z,1021.10
2019-02-12T00:25:56.078Z,1021.09
2019-02-12T00:26:56.087Z,1021.09
2019-02-12T00:27:56.070Z,1021.04
2019-02-12T00:28:56.050Z,1021.04
2019-02-12T00:29:56.073Z,1021.01
2019-02-12T00:30:56.021Z,1020.93
2019-02-12T00:31:56.014Z,1021.01
2019-02-12T00:32:56.016Z,1020.99
2019-02-12T00:33:55.997Z,1020.86
2019-02-12T00:34:55.993Z,1020.88
2019-02-12T00:35:56.003Z,1020.93
2019-02-12T00:36:55.957Z,1020.95
2019-02-12T00:37:55.961Z,1020.98
2019-02-12T00:38:55.952Z,1021.00
2019-02-12T00:39:55.933Z,1020.98
2019-02-12T00:40:55.946Z,1020.99
2019-02-12T00:41:55.924Z,1020.92
2019-02-12T00:42:55.895Z,1021.00
2019-02-12T00:43:55.897Z,1021.07
2019-02-12T00:44:55.880Z,1020.99
2019-02-12T00:45:55.871Z,1021.01
2019-02-12T00:46:55.882Z,1021.10
2019-02-12T00:47:55.855Z,1021.07
2019-02-12T00:48:55.830Z,1021.03
2019-02-12T00:49:55.832Z,1021.01
2019-02-12T00:50:55.818Z,1020.98
2019-02-12T00:51:55.811Z,1020.88
2019-02-12T00:52:55.822Z,1020.95
2019-02-12T00:53:55.792Z,1021.03
2019-02-12T00:54:55.768Z,1021.16
2019-02-12T00:55:55.769Z,1021.05
2019-02-12T00:56:55.754Z,1021.13
2019-02-12T00:57:55.745Z,1021.28
2019-02-12T00:58:55.755Z,1021.11
2019-02-12T00:59:55.717Z,1021.02
2019-02-12T01:00:55.707Z,1021.07
2019-02-12T01:01:55.702Z,1021.05
2019-02-12T01:02:55.687Z,1021.12
2019-02-12T01:03:55.696Z,1021.13
2019-02-12T01:04:55.662Z,1021.12
2019-02-12T01:05:55.651Z,1021.22
2019-02-12T01:06:55.649Z,1021.21
2019-02-12T01:07:55.636Z,1021.21
2019-02-12T01:08:55.625Z,1021.26
2019-02-12T01:09:55.635Z,1021.24
2019-02-12T01:10:55.629Z,1021.19
2019-02-12T01:11:55.595Z,1021.28
2019-02-12T01:12:55.591Z,1021.22
2019-02-12T01:13:55.579Z,1021.21
2019-02-12T01:14:55.565Z,1021.24
2019-02-12T01:15:55.575Z,1021.37
2019-02-12T01:16:55.556Z,1021.25
2019-02-12T01:17:55.531Z,1021.35
2019-02-12T01:18:55.523Z,1021.29
2019-02-12T01:19:55.511Z,1021.30
2019-02-12T01:20:55.527Z,1021.31
2019-02-12T01:21:55.489Z,1021.29
2019-02-12T01:22:55.471Z,1021.27
2019-02-12T01:23:55.459Z,1021.45
2019-02-12T01:24:55.467Z,1021.37
2019-02-12T01:25:55.471Z,1021.48
2019-02-12T01:26:55.456Z,1021.43
2019-02-12T01:27:55.420Z,1021.40
2019-02-12T01:28:55.409Z,1021.48
2019-02-12T01:29:55.406Z,1021.51
2019-02-12T01:30:55.426Z,1021.49
2019-02-12T01:31:55.385Z,1021.51
2019-02-12T01:32:55.423Z,1021.58
2019-02-12T01:33:55.365Z,1021.50
2019-02-12T01:34:55.344Z,1021.53
2019-02-12T01:35:55.338Z,1021.51
2019-02-12T01:36:55.353Z,1021.59
2019-02-12T01:37:55.345Z,1021.59
2019-02-12T01:38:55.353Z,1021.56
2019-02-12T01:39:55.298Z,1021.64
2019-02-12T01:40:55.290Z,1021.54
2019-02-12T01:41:55.282Z,1021.59
2019-02-12T01:42:55.281Z,1021.51
2019-02-12T01:43:55.289Z,1021.68
2019-02-12T01:44:55.246Z,1021.66
2019-02-12T01:45:55.229Z,1021.75
2019-02-12T01:46:55.226Z,1021.54
2019-02-12T01:47:55.211Z,1021.61
2019-02-12T01:48:55.197Z,1021.60
2019-02-12T01:49:55.202Z,1021.73
2019-02-12T01:50:55.195Z,1021.70
2019-02-12T01:51:55.173Z,1021.67
2019-02-12T01:52:55.154Z,1021.77
2019-02-12T01:53:55.150Z,1021.85
2019-02-12T01:54:55.154Z,1021.72
2019-02-12T01:55:55.136Z,1021.77
2019-02-12T01:56:55.118Z,1021.74
2019-02-12T01:57:55.117Z,1021.78
2019-02-12T01:58:55.113Z,1021.58
2019-02-12T01:59:55.112Z,1021.81
2019-02-12T02:00:55.071Z,1021.74
2019-02-12T02:01:55.065Z,1021.73
2019-02-12T02:02:55.057Z,1021.79
2019-02-12T02:03:55.051Z,1021.97
2019-02-12T02:04:55.193Z,1021.88
2019-02-12T02:05:55.053Z,1021.90
2019-02-12T02:06:55.014Z,1021.89
2019-02-12T02:07:55.021Z,1021.91
2019-02-12T02:08:54.988Z,1021.90
2019-02-12T02:09:54.985Z,1021.95
2019-02-12T02:10:54.975Z,1021.84
2019-02-12T02:11:54.979Z,1021.86
2019-02-12T02:12:54.950Z,1021.90
2019-02-12T02:13:54.936Z,1021.74
2019-02-12T02:14:54.920Z,1021.76
2019-02-12T02:15:54.915Z,1021.83
2019-02-12T02:16:54.912Z,1021.74
2019-02-12T02:17:54.919Z,1021.78
2019-02-12T02:18:54.884Z,1021.76
2019-02-12T02:19:54.889Z,1021.87
2019-02-12T02:20:54.865Z,1021.90
2019-02-12T02:21:54.859Z,1021.78
2019-02-12T02:22:54.864Z,1021.78
2019-02-12T02:23:54.839Z,1021.76
2019-02-12T02:24:54.822Z,1021.88
2019-02-12T02:25:54.823Z,1021.80
2019-02-12T02:26:54.803Z,1022.08
2019-02-12T02:27:54.831Z,1021.75
2019-02-12T02:28:54.813Z,1021.81
2019-02-12T02:29:54.766Z,1021.84
2019-02-12T02:30:54.771Z,1021.85
2019-02-12T02:31:54.772Z,1021.83
2019-02-12T02:32:54.742Z,1021.93
2019-02-12T02:33:54.730Z,1021.89
2019-02-12T02:34:54.775Z,1021.77
2019-02-12T02:35:54.698Z,1022.07
2019-02-12T02:36:54.701Z,1021.84
2019-02-12T02:37:54.706Z,1021.83
2019-02-12T02:38:54.707Z,1021.77
2019-02-12T02:39:54.689Z,1021.79
2019-02-12T02:40:54.647Z,1021.79
2019-02-12T02:41:54.648Z,1021.72
2019-02-12T02:42:54.629Z,1021.75
2019-02-12T02:43:54.628Z,1021.73
2019-02-12T02:44:54.643Z,1021.73
2019-02-12T02:45:54.611Z,1021.81
2019-02-12T02:46:54.618Z,1021.79
2019-02-12T02:47:54.572Z,1021.78
2019-02-12T02:48:54.571Z,1021.86
2019-02-12T02:49:54.557Z,1021.91
2019-02-12T02:50:54.581Z,1021.93
2019-02-12T02:51:54.536Z,1021.90
2019-02-12T02:52:54.528Z,1021.92
2019-02-12T02:53:54.523Z,1021.95
2019-02-12T02:54:54.518Z,1021.93
2019-02-12T02:55:54.499Z,1021.99
2019-02-12T02:56:54.486Z,1022.03
2019-02-12T02:57:54.483Z,1021.96
2019-02-12T02:58:54.459Z,1021.95
2019-02-12T02:59:54.480Z,1021.99
2019-02-12T03:00:54.447Z,1022.02
2019-02-12T03:01:54.427Z,1022.22
2019-02-12T03:02:54.416Z,1022.06
2019-02-12T03:03:54.407Z,1022.03
2019-02-12T03:04:54.394Z,1022.07
2019-02-12T03:05:54.444Z,1022.01
2019-02-12T03:06:54.381Z,1021.97
2019-02-12T03:07:54.365Z,1022.15
2019-02-12T03:08:54.353Z,1022.18
2019-02-12T03:09:54.360Z,1022.13
2019-02-12T03:10:54.369Z,1022.06
2019-02-12T03:11:54.326Z,1022.29
2019-02-12T03:12:54.337Z,1022.07
2019-02-12T03:13:54.311Z,1022.26
2019-02-12T03:14:54.293Z,1022.16
2019-02-12T03:15:54.304Z,1022.09
2019-02-12T03:16:54.265Z,1022.14
2019-02-12T03:17:54.262Z,1022.11
2019-02-12T03:18:54.260Z,1022.08
2019-02-12T03:19:54.309Z,1022.17
2019-02-12T03:20:54.239Z,1022.10
2019-02-12T03:22:03.125Z,1022.16
2019-02-12T03:22:55.206Z,1022.07
2019-02-12T03:23:54.194Z,1022.10
2019-02-12T03:24:54.207Z,1022.09
2019-02-12T03:25:54.201Z,1022.12
2019-02-12T03:26:54.163Z,1022.09
2019-02-12T03:27:54.176Z,1022.17
2019-02-12T03:28:54.150Z,1022.15
2019-02-12T03:29:54.140Z,1022.16
2019-02-12T03:30:54.141Z,1022.16
2019-02-12T03:31:54.137Z,1022.12
2019-02-12T03:32:54.110Z,1022.05
2019-02-12T03:33:54.112Z,1022.07
2019-02-12T03:34:54.085Z,1022.08
2019-02-12T03:35:54.079Z,1022.10
2019-02-12T03:36:54.096Z,1022.14
2019-02-12T03:37:54.050Z,1022.06
2019-02-12T03:38:54.035Z,1021.97
2019-02-12T03:39:54.023Z,1022.09
2019-02-12T03:40:54.012Z,1022.09
2019-02-12T03:41:54.020Z,1022.11
2019-02-12T03:42:54.027Z,1022.11
2019-02-12T03:43:53.996Z,1022.21
2019-02-12T03:44:53.986Z,1022.17
2019-02-12T03:45:53.960Z,1022.11
2019-02-12T03:46:54.026Z,1022.19
2019-02-12T03:47:53.950Z,1022.30
2019-02-12T03:48:53.965Z,1022.13
2019-02-12T03:49:53.926Z,1022.11
2019-02-12T03:50:53.928Z,1022.07
2019-02-12T03:51:53.902Z,1022.20
2019-02-12T03:52:53.896Z,1022.16
2019-02-12T03:53:53.906Z,1022.11
2019-02-12T03:54:53.884Z,1022.11
2019-02-12T03:55:53.873Z,1022.16
2019-02-12T03:56:53.922Z,1022.24
2019-02-12T03:57:53.837Z,1022.21
2019-02-12T03:58:53.834Z,1022.26
2019-02-12T03:59:53.842Z,1022.25
2019-02-12T04:00:53.799Z,1022.24
2019-02-12T04:01:53.801Z,1022.28
2019-02-12T04:02:53.797Z,1022.28
2019-02-12T04:03:53.773Z,1022.24
2019-02-12T04:04:53.771Z,1022.27
2019-02-12T04:05:53.776Z,1022.31
2019-02-12T04:06:53.745Z,1022.33
2019-02-12T04:07:53.790Z,1022.30
2019-02-12T04:08:53.740Z,1022.33
2019-02-12T04:09:53.705Z,1022.42
2019-02-12T04:10:53.705Z,1022.43
2019-02-12T04:11:53.727Z,1022.26
2019-02-12T04:12:53.682Z,1022.23
2019-02-12T04:13:53.674Z,1022.26
2019-02-12T04:14:53.653Z,1022.35
2019-02-12T04:15:53.645Z,1022.32
2019-02-12T04:16:53.645Z,1022.38
2019-02-12T04:17:53.652Z,1022.33
2019-02-12T04:18:53.612Z,1022.30
2019-02-12T04:19:53.605Z,1022.42
2019-02-12T04:20:53.592Z,1022.34
2019-02-12T04:21:53.638Z,1022.28
2019-02-12T04:22:53.585Z,1022.36
2019-02-12T04:23:53.588Z,1022.28
2019-02-12T04:24:53.546Z,1022.31
2019-02-12T04:25:53.546Z,1022.32
2019-02-12T04:26:53.535Z,1022.30
2019-02-12T04:27:55.361Z,1022.29
2019-02-12T04:28:53.522Z,1022.23
2019-02-12T04:29:53.517Z,1022.27
2019-02-12T04:30:53.491Z,1022.35
2019-02-12T04:31:53.478Z,1022.25
2019-02-12T04:32:53.478Z,1022.20
2019-02-12T04:33:53.531Z,1022.25
2019-02-12T04:34:53.451Z,1022.31
2019-02-12T04:35:53.461Z,1022.30
2019-02-12T04:36:53.421Z,1022.37
2019-02-12T04:37:53.432Z,1022.35
2019-02-12T04:38:53.405Z,1022.33
2019-02-12T04:39:53.449Z,1022.34
2019-02-12T04:40:53.377Z,1022.48
2019-02-12T04:41:53.385Z,1022.40
2019-02-12T04:42:53.365Z,1022.43
2019-02-12T04:43:53.354Z,1022.40
2019-02-12T04:44:54.319Z,1022.58
2019-02-12T04:45:53.351Z,1022.44
2019-02-12T04:46:53.320Z,1022.49
2019-02-12T04:47:53.308Z,1022.51
2019-02-12T04:48:53.320Z,1022.60
2019-02-12T04:49:53.280Z,1022.50
2019-02-12T04:50:53.307Z,1022.63
2019-02-12T04:51:53.273Z,1022.69
2019-02-12T04:52:53.332Z,1022.62
2019-02-12T04:53:53.263Z,1022.55
2019-02-12T04:54:53.254Z,1022.57
2019-02-12T04:55:53.244Z,1022.52
2019-02-12T04:56:53.285Z,1022.57
2019-02-12T04:57:53.208Z,1022.71
2019-02-12T04:58:53.202Z,1022.57
2019-02-12T04:59:53.181Z,1022.67
2019-02-12T05:00:53.172Z,1022.65
2019-02-12T05:01:53.154Z,1022.67
2019-02-12T05:02:53.175Z,1022.57
2019-02-12T05:03:53.150Z,1022.64
2019-02-12T05:04:53.137Z,1022.68
2019-02-12T05:05:53.137Z,1022.79
2019-02-12T05:06:53.136Z,1022.65
2019-02-12T05:07:53.154Z,1022.74
2019-02-12T05:08:53.084Z,1022.78
2019-02-12T05:09:53.075Z,1022.85
2019-02-12T05:10:53.061Z,1022.76
2019-02-12T05:11:53.049Z,1022.87
2019-02-12T05:12:53.087Z,1022.84
2019-02-12T05:13:53.031Z,1022.78
2019-02-12T05:14:53.021Z,1022.83
2019-02-12T05:15:53.003Z,1022.79
2019-02-12T05:16:52.997Z,1022.84
2019-02-12T05:17:53.008Z,1022.86
2019-02-12T05:18:53.010Z,1022.84
2019-02-12T05:19:52.969Z,1022.83
2019-02-12T05:20:52.959Z,1022.88
2019-02-12T05:21:52.962Z,1022.81
2019-02-12T05:22:52.967Z,1022.79
2019-02-12T05:23:52.932Z,1022.78
2019-02-12T05:24:52.917Z,1022.76
2019-02-12T05:25:52.897Z,1022.82
2019-02-12T05:26:52.902Z,1022.86
2019-02-12T05:27:52.909Z,1022.84
2019-02-12T05:28:52.878Z,1022.86
2019-02-12T05:29:52.854Z,1022.89
2019-02-12T05:30:52.851Z,1022.91
2019-02-12T05:31:52.842Z,1022.92
2019-02-12T05:32:52.853Z,1022.88
2019-02-12T05:33:52.817Z,1022.92
2019-02-12T05:34:52.830Z,1022.85
2019-02-12T05:35:52.841Z,1022.87
2019-02-12T05:36:52.784Z,1022.86
2019-02-12T05:37:52.833Z,1022.90
2019-02-12T05:38:52.777Z,1022.92
2019-02-12T05:39:52.751Z,1022.87
2019-02-12T05:40:52.735Z,1023.00
2019-02-12T05:41:52.722Z,1022.97
2019-02-12T05:42:52.722Z,1022.90
2019-02-12T05:43:52.728Z,1022.96
2019-02-12T05:44:52.707Z,1023.03
2019-02-12T05:45:52.722Z,1022.97
2019-02-12T05:46:52.685Z,1023.03
2019-02-12T05:47:52.694Z,1023.02
2019-02-12T05:48:52.649Z,1023.01
2019-02-12T05:49:52.703Z,1023.01
2019-02-12T05:50:52.637Z,1022.99
2019-02-12T05:51:52.627Z,1023.03
2019-02-12T05:52:54.785Z,1023.05
2019-02-12T05:53:52.617Z,1023.07
2019-02-12T05:54:52.594Z,1023.12
2019-02-12T05:55:52.589Z,1023.14
2019-02-12T05:56:52.568Z,1023.02
2019-02-12T05:57:52.569Z,1023.02
2019-02-12T05:58:52.592Z,1023.04
2019-02-12T05:59:52.541Z,1023.10
2019-02-12T06:00:52.528Z,1023.11
2019-02-12T06:01:52.521Z,1023.18
2019-02-12T06:02:52.508Z,1023.12
2019-02-12T06:03:52.519Z,1023.15
2019-02-12T06:04:52.493Z,1023.19
2019-02-12T06:05:52.485Z,1023.09
2019-02-12T06:06:52.455Z,1023.20
2019-02-12T06:07:52.465Z,1023.21
2019-02-12T06:08:52.445Z,1023.21
2019-02-12T06:09:52.463Z,1023.20
2019-02-12T06:10:52.420Z,1023.31
2019-02-12T06:11:52.412Z,1023.27
2019-02-12T06:12:52.402Z,1023.14
2019-02-12T06:13:52.387Z,1023.26
2019-02-12T06:14:52.383Z,1023.33
2019-02-12T06:15:52.392Z,1023.33
2019-02-12T06:16:52.376Z,1023.27
2019-02-12T06:17:52.353Z,1023.24
2019-02-12T06:18:52.340Z,1023.32
2019-02-12T06:19:52.342Z,1023.25
2019-02-12T06:20:52.314Z,1023.40
2019-02-12T06:21:52.332Z,1023.52
2019-02-12T06:22:52.326Z,1023.39
2019-02-12T06:23:52.275Z,1023.33
2019-02-12T06:24:52.275Z,1023.23
2019-02-12T06:25:52.275Z,1023.26
2019-02-12T06:26:52.259Z,1023.31
2019-02-12T06:27:52.289Z,1023.32
2019-02-12T06:28:52.251Z,1023.37
2019-02-12T06:29:52.223Z,1023.49
2019-02-12T06:30:52.225Z,1023.45
2019-02-12T06:31:52.191Z,1023.51
2019-02-12T06:32:52.194Z,1023.40
2019-02-12T06:33:52.190Z,1023.36
2019-02-12T06:34:52.163Z,1023.44
2019-02-12T06:35:52.161Z,1023.37
2019-02-12T06:36:52.156Z,1023.32
2019-02-12T06:37:52.134Z,1023.36
2019-02-12T06:38:52.163Z,1023.45
2019-02-12T06:39:52.110Z,1023.41
2019-02-12T06:40:52.103Z,1023.41
2019-02-12T06:41:52.096Z,1023.40
2019-02-12T06:42:52.087Z,1023.40
2019-02-12T06:43:52.137Z,1023.51
2019-02-12T06:44:52.058Z,1023.56
2019-02-12T06:45:52.065Z,1023.55
2019-02-12T06:46:52.053Z,1023.62
2019-02-12T06:47:52.029Z,1023.70
2019-02-12T06:48:52.018Z,1023.63
2019-02-12T06:49:52.049Z,1023.63
2019-02-12T06:50:52.005Z,1023.73
2019-02-12T06:51:51.990Z,1023.66
2019-02-12T06:52:51.969Z,1023.64
2019-02-12T06:53:51.991Z,1023.69
2019-02-12T06:54:51.968Z,1023.69
2019-02-12T06:55:51.977Z,1023.73
2019-02-12T06:56:51.942Z,1023.79
2019-02-12T06:57:51.917Z,1023.75
2019-02-12T06:58:51.920Z,1023.74
2019-02-12T06:59:51.922Z,1023.89
2019-02-12T07:00:51.927Z,1023.88
2019-02-12T07:01:51.894Z,1023.94
2019-02-12T07:02:51.885Z,1023.83
2019-02-12T07:03:51.902Z,1023.92
2019-02-12T07:04:51.852Z,1023.92
2019-02-12T07:05:51.847Z,1023.86
2019-02-12T07:06:51.874Z,1023.90
2019-02-12T07:07:51.820Z,1023.83
2019-02-12T07:08:51.811Z,1023.88
2019-02-12T07:09:51.801Z,1023.88
2019-02-12T07:10:51.790Z,1023.95
2019-02-12T07:11:51.796Z,1024.04
2019-02-12T07:12:51.795Z,1024.07
2019-02-12T07:13:51.750Z,1024.08
2019-02-12T07:14:51.758Z,1024.17
2019-02-12T07:15:51.733Z,1024.21
2019-02-12T07:16:51.722Z,1024.20
2019-02-12T07:17:51.718Z,1024.25
2019-02-12T07:18:51.727Z,1024.26
2019-02-12T07:19:51.697Z,1024.37
2019-02-12T07:20:51.686Z,1024.32
2019-02-12T07:21:51.664Z,1024.37
2019-02-12T07:22:51.665Z,1024.24
2019-02-12T07:23:51.666Z,1024.22
2019-02-12T07:24:51.681Z,1024.23
2019-02-12T07:25:51.639Z,1024.33
2019-02-12T07:26:51.622Z,1024.27
2019-02-12T07:27:51.602Z,1024.35
2019-02-12T07:28:51.641Z,1024.30
2019-02-12T07:29:51.609Z,1024.30
2019-02-12T07:30:51.614Z,1024.25
2019-02-12T07:31:51.566Z,1024.33
2019-02-12T07:32:51.578Z,1024.30
2019-02-12T07:33:51.561Z,1024.40
2019-02-12T07:34:51.548Z,1024.38
2019-02-12T07:35:51.550Z,1024.39
2019-02-12T07:36:51.562Z,1024.48
2019-02-12T07:37:51.504Z,1024.46
2019-02-12T07:38:51.485Z,1024.47
2019-02-12T07:39:51.480Z,1024.48
2019-02-12T07:40:51.470Z,1024.47
2019-02-12T07:41:51.486Z,1024.48
2019-02-12T07:42:51.478Z,1024.50
2019-02-12T07:43:51.458Z,1024.46
2019-02-12T07:44:51.423Z,1024.47
2019-02-12T07:45:51.427Z,1024.47
2019-02-12T07:46:51.430Z,1024.50
2019-02-12T07:47:51.417Z,1024.54
2019-02-12T07:48:51.382Z,1024.55
2019-02-12T07:49:51.384Z,1024.50
2019-02-12T07:50:51.397Z,1024.55
2019-02-12T07:51:51.360Z,1024.54
2019-02-12T07:52:51.367Z,1024.51
2019-02-12T07:53:51.362Z,1024.52
2019-02-12T07:54:51.322Z,1024.48
2019-02-12T07:55:51.559Z,1024.55
2019-02-12T07:56:51.300Z,1024.58
2019-02-12T07:57:51.302Z,1024.55
2019-02-12T07:58:51.338Z,1024.63
2019-02-12T07:59:51.291Z,1024.58
2019-02-12T08:00:51.260Z,1024.57
2019-02-12T08:01:51.239Z,1024.64
2019-02-12T08:02:51.233Z,1024.72
2019-02-12T08:03:51.232Z,1024.61
2019-02-12T08:04:51.244Z,1024.70
2019-02-12T08:05:51.215Z,1024.57
2019-02-12T08:06:51.188Z,1024.63
2019-02-12T08:07:51.180Z,1024.70
2019-02-12T08:08:51.175Z,1024.66
2019-02-12T08:09:51.164Z,1024.66
2019-02-12T08:10:51.177Z,1024.73
2019-02-12T08:11:51.138Z,1024.73
2019-02-12T08:12:51.133Z,1024.68
2019-02-12T08:13:51.109Z,1024.78
2019-02-12T08:14:51.111Z,1024.70
2019-02-12T08:15:51.103Z,1024.78
2019-02-12T08:16:51.103Z,1024.78
2019-02-12T08:17:51.075Z,1024.85
2019-02-12T08:18:51.063Z,1024.89
2019-02-12T08:19:51.065Z,1024.88
2019-02-12T08:20:51.041Z,1024.91
2019-02-12T08:21:51.045Z,1024.97
2019-02-12T08:22:51.045Z,1024.83
2019-02-12T08:23:51.019Z,1024.90
2019-02-12T08:24:51.019Z,1024.92
2019-02-12T08:25:50.989Z,1024.96
2019-02-12T08:26:50.976Z,1024.95
2019-02-12T08:27:50.976Z,1025.03
2019-02-12T08:28:52.154Z,1025.10
2019-02-12T08:29:50.940Z,1025.16
2019-02-12T08:30:50.941Z,1024.99
2019-02-12T08:31:50.931Z,1025.00
2019-02-12T08:32:50.920Z,1025.02
2019-02-12T08:33:50.915Z,1025.03
2019-02-12T08:34:50.927Z,1025.08
2019-02-12T08:35:57.092Z,1025.06
2019-02-12T08:36:51.868Z,1025.06
2019-02-12T08:37:50.850Z,1025.04
2019-02-12T08:38:50.877Z,1025.16
2019-02-12T08:39:50.854Z,1025.04
2019-02-12T08:40:50.873Z,1025.05
2019-02-12T08:41:50.822Z,1025.10
2019-02-12T08:42:50.804Z,1025.15
2019-02-12T08:43:50.792Z,1025.15
2019-02-12T08:44:50.787Z,1025.18
2019-02-12T08:45:50.764Z,1025.17
2019-02-12T08:46:50.785Z,1025.11
2019-02-12T08:47:50.768Z,1025.12
2019-02-12T08:48:50.772Z,1025.17
2019-02-12T08:49:50.735Z,1025.23
2019-02-12T08:50:50.718Z,1025.21
2019-02-12T08:51:50.779Z,1025.16
2019-02-12T08:52:50.696Z,1025.09
2019-02-12T08:53:50.903Z,1025.22
2019-02-12T08:54:50.733Z,1025.21
2019-02-12T08:55:50.673Z,1025.17
2019-02-12T08:56:50.649Z,1025.12
2019-02-12T08:57:50.684Z,1025.13
2019-02-12T08:58:50.634Z,1025.26
2019-02-12T08:59:50.654Z,1025.19
2019-02-12T09:00:50.608Z,1025.16
2019-02-12T09:01:50.651Z,1025.23
2019-02-12T09:02:50.594Z,1025.14
2019-02-12T09:03:50.623Z,1025.29
2019-02-12T09:04:50.570Z,1025.18
2019-02-12T09:05:50.560Z,1025.36
2019-02-12T09:06:50.542Z,1025.20
2019-02-12T09:07:50.541Z,1025.48
2019-02-12T09:08:50.549Z,1025.31
2019-02-12T09:09:50.567Z,1025.39
2019-02-12T09:10:50.519Z,1025.53
2019-02-12T09:11:50.518Z,1025.34
2019-02-12T09:12:50.493Z,1025.39
2019-02-12T09:13:50.488Z,1025.39
2019-02-12T09:14:50.466Z,1025.40
2019-02-12T09:15:50.495Z,1025.43
2019-02-12T09:16:50.453Z,1025.52
2019-02-12T09:17:50.434Z,1025.68
2019-02-12T09:18:50.420Z,1025.50
2019-02-12T09:19:50.421Z,1025.54
2019-02-12T09:20:50.404Z,1025.42
2019-02-12T09:21:50.444Z,1025.50
2019-02-12T09:22:50.393Z,1025.43
2019-02-12T09:23:59.543Z,1025.44
2019-02-12T09:24:51.359Z,1025.51
2019-02-12T09:25:50.347Z,1025.54
2019-02-12T09:26:50.362Z,1025.44
2019-02-12T09:27:50.317Z,1025.56
2019-02-12T09:28:50.330Z,1025.51
2019-02-12T09:29:50.299Z,1025.50
2019-02-12T09:30:50.292Z,1025.46
2019-02-12T09:31:50.287Z,1025.58
2019-02-12T09:32:50.319Z,1025.48
2019-02-12T09:33:50.266Z,1025.52
2019-02-12T09:34:50.263Z,1025.64
2019-02-12T09:35:50.254Z,1025.57
2019-02-12T09:36:50.229Z,1025.56
2019-02-12T09:37:50.220Z,1025.63
2019-02-12T09:38:50.237Z,1025.80
2019-02-12T09:39:50.197Z,1025.60
2019-02-12T09:40:50.207Z,1025.78
2019-02-12T09:41:50.176Z,1025.71
2019-02-12T09:42:50.182Z,1025.84
2019-02-12T09:43:50.172Z,1025.93
2019-02-12T09:44:50.170Z,1026.02
2019-02-12T09:45:50.140Z,1025.94
2019-02-12T09:46:50.222Z,1025.89
2019-02-12T09:47:50.115Z,1025.80
2019-02-12T09:48:50.111Z,1025.95
2019-02-12T09:49:50.232Z,1025.95
2019-02-12T09:50:50.078Z,1025.86
2019-02-12T09:51:50.074Z,1025.83
2019-02-12T09:52:50.065Z,1026.07
2019-02-12T09:53:50.055Z,1026.08
2019-02-12T09:54:50.061Z,1026.12
2019-02-12T09:55:50.071Z,1026.08
2019-02-12T09:56:50.011Z,1026.07
2019-02-12T09:57:50.015Z,1026.04
2019-02-12T09:58:49.992Z,1026.07
2019-02-12T09:59:49.994Z,1026.01
2019-02-12T10:00:49.984Z,1026.09
2019-02-12T10:01:49.988Z,1026.01
2019-02-12T10:02:49.953Z,1026.08
2019-02-12T10:03:49.943Z,1026.05
2019-02-12T10:04:49.931Z,1026.06
2019-02-12T10:05:49.928Z,1026.16
2019-02-12T10:06:49.912Z,1026.20
2019-02-12T10:07:49.963Z,1026.21
2019-02-12T10:08:49.894Z,1026.18
2019-02-12T10:09:49.889Z,1026.17
2019-02-12T10:10:49.875Z,1026.16
2019-02-12T10:11:49.860Z,1026.13
2019-02-12T10:12:49.871Z,1026.27
2019-02-12T10:13:49.875Z,1026.22
2019-02-12T10:14:49.828Z,1026.18
2019-02-12T10:15:49.817Z,1026.18
2019-02-12T10:16:49.812Z,1026.17
2019-02-12T10:17:49.806Z,1026.20
2019-02-12T10:18:49.806Z,1026.24
2019-02-12T10:19:49.805Z,1026.23
2019-02-12T10:20:49.768Z,1026.22
2019-02-12T10:21:49.782Z,1026.28
2019-02-12T10:22:49.740Z,1026.29
2019-02-12T10:23:49.787Z,1026.27
2019-02-12T10:24:49.725Z,1026.34
2019-02-12T10:25:49.718Z,1026.32
2019-02-12T10:26:49.716Z,1026.30
2019-02-12T10:27:49.699Z,1026.35
2019-02-12T10:28:49.679Z,1026.31
2019-02-12T10:29:49.706Z,1026.31
2019-02-12T10:30:49.680Z,1026.31
2019-02-12T10:31:49.653Z,1026.31
2019-02-12T10:32:49.658Z,1026.36
2019-02-12T10:33:49.631Z,1026.37
2019-02-12T10:34:49.618Z,1026.29
2019-02-12T10:35:49.636Z,1026.34
2019-02-12T10:36:49.600Z,1026.23
2019-02-12T10:37:49.592Z,1026.26
2019-02-12T10:38:49.657Z,1026.23
2019-02-12T10:39:49.570Z,1026.38
2019-02-12T10:40:49.556Z,1026.26
2019-02-12T10:41:49.565Z,1026.31
2019-02-12T10:42:49.545Z,1026.26
2019-02-12T10:43:49.537Z,1026.27
2019-02-12T10:44:49.524Z,1026.20
2019-02-12T10:45:49.505Z,1026.13
2019-02-12T10:46:49.492Z,1026.18
2019-02-12T10:47:49.522Z,1026.22
2019-02-12T10:48:49.502Z,1026.24
2019-02-12T10:49:49.483Z,1026.27
2019-02-12T10:50:49.452Z,1026.24
2019-02-12T10:51:50.988Z,1026.25
2019-02-12T10:52:49.432Z,1026.30
2019-02-12T10:53:49.461Z,1026.34
2019-02-12T10:54:49.422Z,1026.46
2019-02-12T10:55:49.406Z,1026.33
2019-02-12T10:56:49.383Z,1026.37
2019-02-12T10:57:49.382Z,1026.33
2019-02-12T10:58:49.376Z,1026.20
2019-02-12T10:59:49.380Z,1026.23
2019-02-12T11:00:49.382Z,1026.26
2019-02-12T11:01:49.351Z,1026.24
2019-02-12T11:02:49.325Z,1026.26
2019-02-12T11:03:49.316Z,1026.34
2019-02-12T11:04:49.316Z,1026.29
2019-02-12T11:05:49.308Z,1026.32
2019-02-12T11:06:49.299Z,1026.51
2019-02-12T11:07:49.284Z,1026.29
2019-02-12T11:08:49.302Z,1026.28
2019-02-12T11:09:49.254Z,1026.41
2019-02-12T11:10:49.264Z,1026.46
2019-02-12T11:11:49.249Z,1026.42
2019-02-12T11:12:49.223Z,1026.39
2019-02-12T11:13:49.221Z,1026.40
2019-02-12T11:14:49.201Z,1026.50
2019-02-12T11:15:49.228Z,1026.38
2019-02-12T11:16:49.174Z,1026.27
2019-02-12T11:17:49.176Z,1026.37
2019-02-12T11:18:49.158Z,1026.22
2019-02-12T11:19:49.166Z,1026.23
2019-02-12T11:20:49.131Z,1026.22
2019-02-12T11:21:49.148Z,1026.42
2019-02-12T11:22:49.112Z,1026.21
2019-02-12T11:23:49.127Z,1026.32
2019-02-12T11:24:49.100Z,1026.25
2019-02-12T11:25:49.076Z,1026.25
2019-02-12T11:26:49.112Z,1026.38
2019-02-12T11:27:49.058Z,1026.24
2019-02-12T11:28:49.055Z,1026.31
2019-02-12T11:29:49.053Z,1026.30
2019-02-12T11:30:49.039Z,1026.34
2019-02-12T11:31:49.036Z,1026.30
2019-02-12T11:32:49.082Z,1026.23
2019-02-12T11:33:48.998Z,1026.25
2019-02-12T11:34:49.008Z,1026.25
2019-02-12T11:35:48.974Z,1026.29
2019-02-12T11:36:48.975Z,1026.27
2019-02-12T11:37:48.953Z,1026.11
2019-02-12T11:38:48.980Z,1026.26
2019-02-12T11:39:48.937Z,1026.25
2019-02-12T11:40:48.937Z,1026.28
2019-02-12T11:41:48.911Z,1026.21
2019-02-12T11:42:48.920Z,1026.26
2019-02-12T11:43:48.917Z,1026.23
2019-02-12T11:44:48.914Z,1026.24
2019-02-12T11:45:48.865Z,1026.16
2019-02-12T11:46:48.877Z,1026.18
2019-02-12T11:47:48.902Z,1026.18
2019-02-12T11:48:48.866Z,1026.14
2019-02-12T11:49:48.828Z,1026.24
2019-02-12T11:50:48.840Z,1026.12
2019-02-12T11:51:48.810Z,1026.08
2019-02-12T11:52:48.820Z,1025.95
2019-02-12T11:53:48.787Z,1026.13
2019-02-12T11:54:48.788Z,1026.19
2019-02-12T11:55:48.761Z,1026.09
2019-02-12T11:56:48.775Z,1026.22
2019-02-12T11:57:48.748Z,1026.14
2019-02-12T11:58:48.742Z,1026.08
2019-02-12T11:59:48.723Z,1026.08
2019-02-12T12:00:48.725Z,1026.26
2019-02-12T12:01:48.697Z,1026.03
2019-02-12T12:02:48.702Z,1026.05
2019-02-12T12:03:48.673Z,1026.12
2019-02-12T12:04:48.675Z,1026.11
2019-02-12T12:05:48.662Z,1026.16